sensor_id;sensor_type;location;lat;lon;timestamp;pressure;altitude;pressure_sealevel;temperature;humidity
73063;BME280;61230;46.328;19.972;2024-03-07T00:00:50;100367.56;;;6.31;100.00
73063;BME280;61230;46.328;19.972;2024-03-07T00:03:21;100410.88;;;6.58;100.00
73063;BME280;61230;46.328;19.972;2024-03-07T00:05:51;100412.44;;;6.60;100.00
73063;BME280;61230;46.328;19.972;2024-03-07T00:08:19;100414.44;;;6.57;100.00
73063;BME280;61230;46.328;19.972;2024-03-07T00:10:47;100411.34;;;6.52;100.00
73063;BME280;61230;46.328;19.972;2024-03-07T00:13:15;100406.34;;;6.49;100.00
73063;BME280;61230;46.328;19.972;2024-03-07T00:15:43;100412.28;;;6.51;100.00
73063;BME280;61230;46.328;19.972;2024-03-07T00:18:10;100415.12;;;6.48;100.00
73063;BME280;61230;46.328;19.972;2024-03-07T00:20:38;100415.25;;;6.46;100.00
73063;BME280;61230;46.328;19.972;2024-03-07T00:23:06;100399.19;;;6.40;100.00
73063;BME280;61230;46.328;19.972;2024-03-07T00:25:34;100412.41;;;6.49;100.00
73063;BME280;61230;46.328;19.972;2024-03-07T00:28:02;100401.81;;;6.40;100.00
73063;BME280;61230;46.328;19.972;2024-03-07T00:30:30;100402.50;;;6.42;100.00
73063;BME280;61230;46.328;19.972;2024-03-07T00:32:58;100407.16;;;6.38;100.00
73063;BME280;61230;46.328;19.972;2024-03-07T00:35:26;100400.38;;;6.35;100.00
73063;BME280;61230;46.328;19.972;2024-03-07T00:37:55;100398.03;;;6.44;100.00
73063;BME280;61230;46.328;19.972;2024-03-07T00:40:24;100405.59;;;6.35;100.00
73063;BME280;61230;46.328;19.972;2024-03-07T00:42:51;100400.88;;;6.41;100.00
73063;BME280;61230;46.328;19.972;2024-03-07T00:45:20;100399.66;;;6.45;100.00
73063;BME280;61230;46.328;19.972;2024-03-07T00:47:48;100402.25;;;6.33;100.00
73063;BME280;61230;46.328;19.972;2024-03-07T00:50:16;100394.53;;;6.32;100.00
73063;BME280;61230;46.328;19.972;2024-03-07T00:52:43;100390.34;;;6.18;100.00
73063;BME280;61230;46.328;19.972;2024-03-07T00:55:11;100388.41;;;6.09;100.00
73063;BME280;61230;46.328;19.972;2024-03-07T00:57:38;100384.12;;;6.08;100.00
73063;BME280;61230;46.328;19.972;2024-03-07T01:00:06;100392.41;;;6.02;100.00
73063;BME280;61230;46.328;19.972;2024-03-07T01:02:41;100388.72;;;6.05;100.00
73063;BME280;61230;46.328;19.972;2024-03-07T01:05:13;100387.31;;;6.01;100.00
73063;BME280;61230;46.328;19.972;2024-03-07T01:07:41;100387.19;;;6.02;100.00
73063;BME280;61230;46.328;19.972;2024-03-07T01:10:10;100396.69;;;6.03;100.00
73063;BME280;61230;46.328;19.972;2024-03-07T01:12:38;100396.25;;;6.09;100.00
73063;BME280;61230;46.328;19.972;2024-03-07T01:15:07;100396.34;;;6.08;100.00
73063;BME280;61230;46.328;19.972;2024-03-07T01:17:36;100387.25;;;6.24;100.00
73063;BME280;61230;46.328;19.972;2024-03-07T01:20:04;100396.34;;;6.08;100.00
73063;BME280;61230;46.328;19.972;2024-03-07T01:22:32;100389.47;;;6.07;100.00
73063;BME280;61230;46.328;19.972;2024-03-07T01:24:59;100400.22;;;6.02;100.00
73063;BME280;61230;46.328;19.972;2024-03-07T01:27:27;100397.88;;;6.10;100.00
73063;BME280;61230;46.328;19.972;2024-03-07T01:29:55;100391.94;;;6.08;100.00
73063;BME280;61230;46.328;19.972;2024-03-07T01:32:22;100389.47;;;6.07;100.00
73063;BME280;61230;46.328;19.972;2024-03-07T01:34:50;100392.63;;;5.99;100.00
73063;BME280;61230;46.328;19.972;2024-03-07T01:37:18;100383.69;;;5.91;100.00
73063;BME280;61230;46.328;19.972;2024-03-07T01:39:45;100392.63;;;5.99;100.00
73063;BME280;61230;46.328;19.972;2024-03-07T01:42:14;100383.84;;;6.00;100.00
73063;BME280;61230;46.328;19.972;2024-03-07T01:44:42;100393.47;;;6.00;100.00
73063;BME280;61230;46.328;19.972;2024-03-07T01:47:11;100394.06;;;6.03;100.00
73063;BME280;61230;46.328;19.972;2024-03-07T01:49:39;100390.97;;;5.98;100.00
73063;BME280;61230;46.328;19.972;2024-03-07T01:52:08;100382.41;;;5.96;100.00
73063;BME280;61230;46.328;19.972;2024-03-07T01:54:37;100388.69;;;5.94;100.00
73063;BME280;61230;46.328;19.972;2024-03-07T01:57:05;100389.25;;;6.10;100.00
73063;BME280;61230;46.328;19.972;2024-03-07T01:59:33;100378.38;;;5.92;100.00
73063;BME280;61230;46.328;19.972;2024-03-07T02:02:01;100383.63;;;6.03;100.00
73063;BME280;61230;46.328;19.972;2024-03-07T02:04:29;100381.81;;;5.93;100.00
73063;BME280;61230;46.328;19.972;2024-03-07T02:06:57;100382.09;;;6.01;100.00
73063;BME280;61230;46.328;19.972;2024-03-07T02:09:26;100380.97;;;5.92;100.00
73063;BME280;61230;46.328;19.972;2024-03-07T02:11:54;100378.25;;;5.94;100.00
73063;BME280;61230;46.328;19.972;2024-03-07T02:14:21;100374.47;;;5.98;100.00
73063;BME280;61230;46.328;19.972;2024-03-07T02:16:49;100377.03;;;5.87;100.00
73063;BME280;61230;46.328;19.972;2024-03-07T02:19:17;100377.41;;;5.93;100.00
73063;BME280;61230;46.328;19.972;2024-03-07T02:21:45;100326.97;;;5.69;100.00
73063;BME280;61230;46.328;19.972;2024-03-07T02:24:13;100329.91;;;5.64;100.00
73063;BME280;61230;46.328;19.972;2024-03-07T02:26:42;100371.81;;;5.87;100.00
73063;BME280;61230;46.328;19.972;2024-03-07T02:29:11;100374.78;;;5.93;100.00
73063;BME280;61230;46.328;19.972;2024-03-07T02:31:38;100368.75;;;5.93;100.00
73063;BME280;61230;46.328;19.972;2024-03-07T02:34:09;100376.47;;;5.94;100.00
73063;BME280;61230;46.328;19.972;2024-03-07T02:36:36;100328.81;;;5.56;100.00
73063;BME280;61230;46.328;19.972;2024-03-07T02:39:04;100369.06;;;5.88;100.00
73063;BME280;61230;46.328;19.972;2024-03-07T02:41:32;100367.44;;;5.87;100.00
73063;BME280;61230;46.328;19.972;2024-03-07T02:44:01;100371.16;;;5.96;100.00
73063;BME280;61230;46.328;19.972;2024-03-07T02:46:31;100354.63;;;5.95;100.00
73063;BME280;61230;46.328;19.972;2024-03-07T02:49:00;100376.37;;;5.96;100.00
73063;BME280;61230;46.328;19.972;2024-03-07T02:51:27;100369.19;;;5.87;100.00
73063;BME280;61230;46.328;19.972;2024-03-07T02:53:55;100373.75;;;5.96;100.00
73063;BME280;61230;46.328;19.972;2024-03-07T02:56:24;100372.72;;;6.09;100.00
73063;BME280;61230;46.328;19.972;2024-03-07T02:58:52;100378.81;;;6.10;100.00
73063;BME280;61230;46.328;19.972;2024-03-07T03:01:20;100393.31;;;6.25;100.00
73063;BME280;61230;46.328;19.972;2024-03-07T03:03:47;100389.97;;;6.12;100.00
73063;BME280;61230;46.328;19.972;2024-03-07T03:06:15;100380.88;;;6.05;100.00
73063;BME280;61230;46.328;19.972;2024-03-07T03:08:43;100387.91;;;6.04;100.00
73063;BME280;61230;46.328;19.972;2024-03-07T03:11:11;100359.37;;;5.90;100.00
73063;BME280;61230;46.328;19.972;2024-03-07T03:13:41;100338.84;;;5.73;100.00
73063;BME280;61230;46.328;19.972;2024-03-07T03:16:09;100387.75;;;5.95;100.00
73063;BME280;61230;46.328;19.972;2024-03-07T03:18:37;100332.63;;;5.63;100.00
73063;BME280;61230;46.328;19.972;2024-03-07T03:21:04;100383.84;;;6.00;100.00
73063;BME280;61230;46.328;19.972;2024-03-07T03:23:32;100389.19;;;5.99;100.00
73063;BME280;61230;46.328;19.972;2024-03-07T03:26:00;100386.81;;;5.83;100.00
73063;BME280;61230;46.328;19.972;2024-03-07T03:28:28;100373.38;;;5.76;100.00
73063;BME280;61230;46.328;19.972;2024-03-07T03:30:56;100382.00;;;5.66;100.00
73063;BME280;61230;46.328;19.972;2024-03-07T03:33:23;100373.81;;;5.70;100.00
73063;BME280;61230;46.328;19.972;2024-03-07T03:35:51;100380.72;;;5.71;100.00
73063;BME280;61230;46.328;19.972;2024-03-07T03:38:19;100338.94;;;5.48;100.00
73063;BME280;61230;46.328;19.972;2024-03-07T03:40:47;100381.38;;;5.62;100.00
73063;BME280;61230;46.328;19.972;2024-03-07T03:43:15;100369.72;;;5.55;100.00
73063;BME280;61230;46.328;19.972;2024-03-07T03:45:43;100333.50;;;5.27;100.00
73063;BME280;61230;46.328;19.972;2024-03-07T03:48:11;100372.00;;;5.60;100.00
73063;BME280;61230;46.328;19.972;2024-03-07T03:50:39;100374.81;;;5.57;100.00
73063;BME280;61230;46.328;19.972;2024-03-07T03:53:07;100377.84;;;5.51;100.00
73063;BME280;61230;46.328;19.972;2024-03-07T03:55:35;100380.69;;;5.48;100.00
73063;BME280;61230;46.328;19.972;2024-03-07T03:58:03;100376.66;;;5.44;100.00
73063;BME280;61230;46.328;19.972;2024-03-07T04:00:33;100376.44;;;5.47;100.00
73063;BME280;61230;46.328;19.972;2024-03-07T04:03:01;100380.69;;;5.48;100.00
73063;BME280;61230;46.328;19.972;2024-03-07T04:05:29;100378.06;;;5.48;100.00
73063;BME280;61230;46.328;19.972;2024-03-07T04:07:57;100370.59;;;5.43;100.00
73063;BME280;61230;46.328;19.972;2024-03-07T04:10:26;100377.69;;;5.41;100.00
73063;BME280;61230;46.328;19.972;2024-03-07T04:12:53;100373.81;;;5.47;100.00
73063;BME280;61230;46.328;19.972;2024-03-07T04:15:21;100335.91;;;5.17;100.00
73063;BME280;61230;46.328;19.972;2024-03-07T04:17:49;100375.38;;;5.49;100.00
73063;BME280;61230;46.328;19.972;2024-03-07T04:20:17;100376.31;;;5.48;100.00
73063;BME280;61230;46.328;19.972;2024-03-07T04:22:47;100370.03;;;5.51;100.00
73063;BME280;61230;46.328;19.972;2024-03-07T04:25:17;100376.22;;;5.50;100.00
73063;BME280;61230;46.328;19.972;2024-03-07T04:27:45;100378.19;;;5.46;100.00
73063;BME280;61230;46.328;19.972;2024-03-07T04:30:13;100384.12;;;5.48;100.00
73063;BME280;61230;46.328;19.972;2024-03-07T04:32:44;100381.66;;;5.47;100.00
73063;BME280;61230;46.328;19.972;2024-03-07T04:35:12;100379.87;;;5.47;100.00
73063;BME280;61230;46.328;19.972;2024-03-07T04:37:44;100383.28;;;5.48;100.00
73063;BME280;61230;46.328;19.972;2024-03-07T04:40:12;100382.16;;;5.52;100.00
73063;BME280;61230;46.328;19.972;2024-03-07T04:42:47;100379.94;;;5.58;100.00
73063;BME280;61230;46.328;19.972;2024-03-07T04:45:18;100341.63;;;5.22;100.00
73063;BME280;61230;46.328;19.972;2024-03-07T04:47:46;100385.91;;;5.48;100.00
73063;BME280;61230;46.328;19.972;2024-03-07T04:50:16;100388.81;;;5.56;100.00
73063;BME280;61230;46.328;19.972;2024-03-07T04:52:47;100401.12;;;5.54;100.00
73063;BME280;61230;46.328;19.972;2024-03-07T04:55:17;100391.97;;;5.48;100.00
73063;BME280;61230;46.328;19.972;2024-03-07T04:57:45;100397.09;;;5.50;100.00
73063;BME280;61230;46.328;19.972;2024-03-07T05:00:14;100398.94;;;5.48;100.00
73063;BME280;61230;46.328;19.972;2024-03-07T05:02:46;100396.97;;;5.51;100.00
73063;BME280;61230;46.328;19.972;2024-03-07T05:05:15;100365.94;;;5.36;100.00
73063;BME280;61230;46.328;19.972;2024-03-07T05:07:50;100356.22;;;5.25;100.00
73063;BME280;61230;46.328;19.972;2024-03-07T05:10:19;100406.13;;;5.57;100.00
73063;BME280;61230;46.328;19.972;2024-03-07T05:12:47;100358.19;;;5.34;100.00
73063;BME280;61230;46.328;19.972;2024-03-07T05:15:14;100407.31;;;5.53;100.00
73063;BME280;61230;46.328;19.972;2024-03-07T05:17:42;100404.38;;;5.57;100.00
73063;BME280;61230;46.328;19.972;2024-03-07T05:20:11;100410.28;;;5.59;100.00
73063;BME280;61230;46.328;19.972;2024-03-07T05:22:42;100411.34;;;5.57;100.00
73063;BME280;61230;46.328;19.972;2024-03-07T05:25:19;100370.94;;;5.39;100.00
73063;BME280;61230;46.328;19.972;2024-03-07T05:27:47;100422.97;;;5.53;100.00
73063;BME280;61230;46.328;19.972;2024-03-07T05:30:17;100412.81;;;5.61;100.00
73063;BME280;61230;46.328;19.972;2024-03-07T05:32:45;100363.09;;;5.39;100.00
73063;BME280;61230;46.328;19.972;2024-03-07T05:35:14;100414.72;;;5.59;100.00
73063;BME280;61230;46.328;19.972;2024-03-07T05:37:44;100418.75;;;5.63;100.00
73063;BME280;61230;46.328;19.972;2024-03-07T05:40:14;100370.75;;;5.29;100.00
73063;BME280;61230;46.328;19.972;2024-03-07T05:42:42;100370.81;;;5.40;100.00
73063;BME280;61230;46.328;19.972;2024-03-07T05:45:10;100420.50;;;5.75;100.00
73063;BME280;61230;46.328;19.972;2024-03-07T05:47:38;100373.91;;;5.45;100.00
73063;BME280;61230;46.328;19.972;2024-03-07T05:50:06;100395.59;;;5.58;100.00
73063;BME280;61230;46.328;19.972;2024-03-07T05:52:35;100424.78;;;5.76;100.00
73063;BME280;61230;46.328;19.972;2024-03-07T05:55:03;100387.16;;;5.55;100.00
73063;BME280;61230;46.328;19.972;2024-03-07T05:57:34;100369.25;;;5.38;100.00
73063;BME280;61230;46.328;19.972;2024-03-07T06:00:01;100424.38;;;5.69;100.00
73063;BME280;61230;46.328;19.972;2024-03-07T06:02:39;100435.94;;;5.78;100.00
73063;BME280;61230;46.328;19.972;2024-03-07T06:05:07;100438.34;;;5.68;100.00
73063;BME280;61230;46.328;19.972;2024-03-07T06:07:43;100434.25;;;5.77;100.00
73063;BME280;61230;46.328;19.972;2024-03-07T06:10:13;100443.06;;;5.76;100.00
73063;BME280;61230;46.328;19.972;2024-03-07T06:12:44;100435.09;;;5.77;100.00
73063;BME280;61230;46.328;19.972;2024-03-07T06:15:31;100397.09;;;5.50;100.00
73063;BME280;61230;46.328;19.972;2024-03-07T06:17:58;100445.97;;;5.71;100.00
73063;BME280;61230;46.328;19.972;2024-03-07T06:20:27;100439.25;;;5.80;100.00
73063;BME280;61230;46.328;19.972;2024-03-07T06:22:55;100447.00;;;5.82;100.00
73063;BME280;61230;46.328;19.972;2024-03-07T06:25:24;100435.09;;;5.77;100.00
73063;BME280;61230;46.328;19.972;2024-03-07T06:28:05;100448.03;;;5.79;100.00
73063;BME280;61230;46.328;19.972;2024-03-07T06:30:40;100450.75;;;5.77;100.00
73063;BME280;61230;46.328;19.972;2024-03-07T06:33:11;100452.09;;;5.83;100.00
73063;BME280;61230;46.328;19.972;2024-03-07T06:35:40;100449.31;;;5.86;100.00
73063;BME280;61230;46.328;19.972;2024-03-07T06:38:09;100450.75;;;5.90;100.00
73063;BME280;61230;46.328;19.972;2024-03-07T06:40:41;100447.81;;;5.82;100.00
73063;BME280;61230;46.328;19.972;2024-03-07T06:43:11;100422.59;;;5.70;100.00
73063;BME280;61230;46.328;19.972;2024-03-07T06:45:40;100414.66;;;5.71;100.00
73063;BME280;61230;46.328;19.972;2024-03-07T06:48:09;100459.31;;;5.92;100.00
73063;BME280;61230;46.328;19.972;2024-03-07T06:50:40;100457.09;;;5.99;100.00
73063;BME280;61230;46.328;19.972;2024-03-07T06:53:08;100424.03;;;5.74;100.00
73063;BME280;61230;46.328;19.972;2024-03-07T06:55:37;100474.09;;;6.04;100.00
73063;BME280;61230;46.328;19.972;2024-03-07T06:58:06;100460.75;;;5.96;100.00
73063;BME280;61230;46.328;19.972;2024-03-07T07:00:35;100471.59;;;6.03;100.00
73063;BME280;61230;46.328;19.972;2024-03-07T07:03:05;100471.19;;;5.96;100.00
73063;BME280;61230;46.328;19.972;2024-03-07T07:05:34;100460.53;;;5.99;100.00
73063;BME280;61230;46.328;19.972;2024-03-07T07:08:02;100475.25;;;6.00;100.00
73063;BME280;61230;46.328;19.972;2024-03-07T07:10:32;100478.06;;;6.10;100.00
73063;BME280;61230;46.328;19.972;2024-03-07T07:13:00;100480.25;;;6.03;100.00
73063;BME280;61230;46.328;19.972;2024-03-07T07:15:28;100482.81;;;5.92;100.00
73063;BME280;61230;46.328;19.972;2024-03-07T07:17:55;100445.31;;;5.80;100.00
73063;BME280;61230;46.328;19.972;2024-03-07T07:20:23;100484.34;;;6.07;100.00
73063;BME280;61230;46.328;19.972;2024-03-07T07:22:51;100485.34;;;6.05;100.00
73063;BME280;61230;46.328;19.972;2024-03-07T07:25:20;100485.38;;;6.28;100.00
73063;BME280;61230;46.328;19.972;2024-03-07T07:27:50;100482.81;;;6.16;100.00
73063;BME280;61230;46.328;19.972;2024-03-07T07:30:19;100495.59;;;6.31;100.00
73063;BME280;61230;46.328;19.972;2024-03-07T07:32:51;100451.34;;;5.94;100.00
73063;BME280;61230;46.328;19.972;2024-03-07T07:35:21;100490.28;;;6.09;100.00
73063;BME280;61230;46.328;19.972;2024-03-07T07:37:50;100503.66;;;6.05;100.00
73063;BME280;61230;46.328;19.972;2024-03-07T07:40:22;100490.59;;;6.05;100.00
73063;BME280;61230;46.328;19.972;2024-03-07T07:42:52;100508.56;;;6.09;100.00
73063;BME280;61230;46.328;19.972;2024-03-07T07:45:21;100506.16;;;6.06;100.00
73063;BME280;61230;46.328;19.972;2024-03-07T07:47:52;100504.81;;;6.01;100.00
73063;BME280;61230;46.328;19.972;2024-03-07T07:50:23;100502.53;;;5.84;100.00
73063;BME280;61230;46.328;19.972;2024-03-07T07:52:56;100506.53;;;5.89;100.00
73063;BME280;61230;46.328;19.972;2024-03-07T07:55:26;100506.75;;;5.86;100.00
73063;BME280;61230;46.328;19.972;2024-03-07T07:57:55;100507.78;;;5.84;100.00
73063;BME280;61230;46.328;19.972;2024-03-07T08:00:27;100519.38;;;5.92;100.00
73063;BME280;61230;46.328;19.972;2024-03-07T08:03:00;100524.69;;;5.91;100.00
73063;BME280;61230;46.328;19.972;2024-03-07T08:05:33;100516.34;;;5.86;100.00
73063;BME280;61230;46.328;19.972;2024-03-07T08:08:08;100514.87;;;5.94;100.00
73063;BME280;61230;46.328;19.972;2024-03-07T08:10:36;100520.38;;;6.02;100.00
73063;BME280;61230;46.328;19.972;2024-03-07T08:13:05;100516.13;;;6.01;100.00
73063;BME280;61230;46.328;19.972;2024-03-07T08:15:38;100523.94;;;6.01;100.00
73063;BME280;61230;46.328;19.972;2024-03-07T08:18:06;100524.69;;;5.91;100.00
73063;BME280;61230;46.328;19.972;2024-03-07T08:20:39;100529.09;;;5.90;100.00
73063;BME280;61230;46.328;19.972;2024-03-07T08:23:09;100532.63;;;5.89;100.00
73063;BME280;61230;46.328;19.972;2024-03-07T08:25:38;100535.31;;;6.00;100.00
73063;BME280;61230;46.328;19.972;2024-03-07T08:28:09;100536.59;;;5.95;100.00
73063;BME280;61230;46.328;19.972;2024-03-07T08:30:37;100542.22;;;6.01;100.00
73063;BME280;61230;46.328;19.972;2024-03-07T08:33:04;100538.66;;;6.02;100.00
73063;BME280;61230;46.328;19.972;2024-03-07T08:35:34;100538.66;;;6.02;100.00
73063;BME280;61230;46.328;19.972;2024-03-07T08:38:02;100543.03;;;6.02;100.00
73063;BME280;61230;46.328;19.972;2024-03-07T08:40:31;100542.88;;;5.92;100.00
73063;BME280;61230;46.328;19.972;2024-03-07T08:43:01;100550.91;;;5.89;100.00
73063;BME280;61230;46.328;19.972;2024-03-07T08:45:31;100538.06;;;5.86;100.00
73063;BME280;61230;46.328;19.972;2024-03-07T08:48:03;100499.66;;;5.63;100.00
73063;BME280;61230;46.328;19.972;2024-03-07T08:50:37;100541.81;;;5.95;100.00
73063;BME280;61230;46.328;19.972;2024-03-07T08:53:07;100541.69;;;5.96;100.00
73063;BME280;61230;46.328;19.972;2024-03-07T08:55:36;100543.66;;;6.05;100.00
73063;BME280;61230;46.328;19.972;2024-03-07T08:58:04;100545.75;;;6.13;100.00
73063;BME280;61230;46.328;19.972;2024-03-07T09:00:35;100553.75;;;6.22;100.00
73063;BME280;61230;46.328;19.972;2024-03-07T09:03:06;100556.47;;;6.21;100.00
73063;BME280;61230;46.328;19.972;2024-03-07T09:09:00;100562.75;;;6.18;100.00
73063;BME280;61230;46.328;19.972;2024-03-07T09:11:29;100559.53;;;6.15;100.00
73063;BME280;61230;46.328;19.972;2024-03-07T09:13:57;100565.38;;;6.18;100.00
73063;BME280;61230;46.328;19.972;2024-03-07T09:16:25;100564.69;;;6.04;100.00
73063;BME280;61230;46.328;19.972;2024-03-07T09:18:53;100560.38;;;6.15;100.00
73063;BME280;61230;46.328;19.972;2024-03-07T09:21:20;100572.75;;;6.24;100.00
73063;BME280;61230;46.328;19.972;2024-03-07T09:23:48;100575.69;;;6.32;100.00
73063;BME280;61230;46.328;19.972;2024-03-07T09:26:16;100577.03;;;6.25;100.00
73063;BME280;61230;46.328;19.972;2024-03-07T09:28:44;100577.69;;;6.16;100.00
73063;BME280;61230;46.328;19.972;2024-03-07T09:31:14;100583.50;;;6.32;100.00
73063;BME280;61230;46.328;19.972;2024-03-07T09:33:42;100582.97;;;6.27;100.00
73063;BME280;61230;46.328;19.972;2024-03-07T09:36:09;100583.16;;;6.37;100.00
73063;BME280;61230;46.328;19.972;2024-03-07T09:38:43;100586.13;;;6.32;100.00
73063;BME280;61230;46.328;19.972;2024-03-07T09:41:14;100592.00;;;6.47;100.00
73063;BME280;61230;46.328;19.972;2024-03-07T09:43:46;100593.47;;;6.51;100.00
73063;BME280;61230;46.328;19.972;2024-03-07T09:46:16;100555.16;;;6.03;100.00
73063;BME280;61230;46.328;19.972;2024-03-07T09:48:43;100599.75;;;6.49;100.00
73063;BME280;61230;46.328;19.972;2024-03-07T09:51:12;100599.69;;;6.61;100.00
73063;BME280;61230;46.328;19.972;2024-03-07T09:53:45;100607.47;;;6.50;100.00
73063;BME280;61230;46.328;19.972;2024-03-07T09:56:18;100605.63;;;6.40;100.00
73063;BME280;61230;46.328;19.972;2024-03-07T09:58:49;100604.25;;;6.47;100.00
73063;BME280;61230;46.328;19.972;2024-03-07T10:01:21;100612.97;;;6.34;100.00
73063;BME280;61230;46.328;19.972;2024-03-07T10:03:50;100553.69;;;6.11;100.00
73063;BME280;61230;46.328;19.972;2024-03-07T10:06:20;100605.22;;;6.33;100.00
73063;BME280;61230;46.328;19.972;2024-03-07T10:08:50;100571.50;;;6.30;100.00
73063;BME280;61230;46.328;19.972;2024-03-07T10:11:18;100606.28;;;6.67;100.00
73063;BME280;61230;46.328;19.972;2024-03-07T10:13:46;100604.88;;;6.74;100.00
73063;BME280;61230;46.328;19.972;2024-03-07T10:16:19;100606.69;;;6.84;100.00
73063;BME280;61230;46.328;19.972;2024-03-07T10:18:46;100621.31;;;7.11;100.00
73063;BME280;61230;46.328;19.972;2024-03-07T10:21:14;100615.19;;;6.99;100.00
73063;BME280;61230;46.328;19.972;2024-03-07T10:23:46;100620.53;;;6.86;100.00
73063;BME280;61230;46.328;19.972;2024-03-07T10:26:15;100626.56;;;6.63;100.00
73063;BME280;61230;46.328;19.972;2024-03-07T10:28:43;100622.91;;;6.66;100.00
73063;BME280;61230;46.328;19.972;2024-03-07T10:31:11;100620.44;;;6.52;100.00
73063;BME280;61230;46.328;19.972;2024-03-07T10:33:42;100629.22;;;6.51;100.00
73063;BME280;61230;46.328;19.972;2024-03-07T10:36:10;100607.53;;;6.61;100.00
73063;BME280;61230;46.328;19.972;2024-03-07T10:38:41;100617.00;;;6.75;100.00
73063;BME280;61230;46.328;19.972;2024-03-07T10:41:10;100622.69;;;6.69;100.00
73063;BME280;61230;46.328;19.972;2024-03-07T10:43:48;100639.69;;;6.51;100.00
73063;BME280;61230;46.328;19.972;2024-03-07T10:46:21;100633.13;;;6.69;100.00
73063;BME280;61230;46.328;19.972;2024-03-07T10:48:55;100618.12;;;6.60;100.00
73063;BME280;61230;46.328;19.972;2024-03-07T10:51:32;100621.16;;;6.54;100.00
73063;BME280;61230;46.328;19.972;2024-03-07T10:56:59;100623.31;;;6.72;100.00
73063;BME280;61230;46.328;19.972;2024-03-07T10:59:34;100620.47;;;6.75;100.00
73063;BME280;61230;46.328;19.972;2024-03-07T11:04:47;100625.38;;;6.67;100.00
73063;BME280;61230;46.328;19.972;2024-03-07T11:07:19;100627.25;;;6.78;100.00
73063;BME280;61230;46.328;19.972;2024-03-07T11:09:49;100621.56;;;6.60;100.00
73063;BME280;61230;46.328;19.972;2024-03-07T11:12:21;100629.00;;;6.54;100.00
73063;BME280;61230;46.328;19.972;2024-03-07T11:14:51;100623.16;;;6.50;100.00
73063;BME280;61230;46.328;19.972;2024-03-07T11:17:20;100621.72;;;6.46;100.00
73063;BME280;61230;46.328;19.972;2024-03-07T11:19:50;100624.13;;;6.49;100.00
73063;BME280;61230;46.328;19.972;2024-03-07T11:22:30;100619.03;;;6.59;100.00
73063;BME280;61230;46.328;19.972;2024-03-07T11:25:09;100614.78;;;6.58;100.00
73063;BME280;61230;46.328;19.972;2024-03-07T11:27:39;100579.28;;;6.43;100.00
73063;BME280;61230;46.328;19.972;2024-03-07T11:30:08;100614.34;;;6.64;100.00
73063;BME280;61230;46.328;19.972;2024-03-07T11:32:38;100620.94;;;6.57;100.00
73063;BME280;61230;46.328;19.972;2024-03-07T11:35:13;100609.87;;;6.53;100.00
73063;BME280;61230;46.328;19.972;2024-03-07T11:37:44;100578.44;;;6.18;100.00
73063;BME280;61230;46.328;19.972;2024-03-07T11:42:48;100618.06;;;6.49;100.00
73063;BME280;61230;46.328;19.972;2024-03-07T11:45:17;100613.53;;;6.51;100.00
73063;BME280;61230;46.328;19.972;2024-03-07T11:47:57;100569.75;;;6.18;100.00
73063;BME280;61230;46.328;19.972;2024-03-07T11:50:28;100618.91;;;6.36;100.00
73063;BME280;61230;46.328;19.972;2024-03-07T11:52:59;100616.50;;;6.46;100.00
73063;BME280;61230;46.328;19.972;2024-03-07T11:55:27;100619.25;;;6.32;100.00
73063;BME280;61230;46.328;19.972;2024-03-07T11:58:01;100568.06;;;6.29;100.00
73063;BME280;61230;46.328;19.972;2024-03-07T12:00:34;100608.28;;;6.63;100.00
73063;BME280;61230;46.328;19.972;2024-03-07T12:03:03;100608.16;;;6.65;100.00
73063;BME280;61230;46.328;19.972;2024-03-07T12:05:34;100597.97;;;6.73;100.00
73063;BME280;61230;46.328;19.972;2024-03-07T12:08:03;100606.66;;;6.73;100.00
73063;BME280;61230;46.328;19.972;2024-03-07T12:10:33;100605.75;;;6.62;100.00
73063;BME280;61230;46.328;19.972;2024-03-07T12:13:01;100566.97;;;6.56;100.00
73063;BME280;61230;46.328;19.972;2024-03-07T12:15:31;100614.56;;;6.61;100.00
73063;BME280;61230;46.328;19.972;2024-03-07T12:18:01;100608.47;;;6.84;100.00
73063;BME280;61230;46.328;19.972;2024-03-07T12:20:30;100603.19;;;6.97;100.00
73063;BME280;61230;46.328;19.972;2024-03-07T12:23:01;100604.69;;;6.88;100.00
73063;BME280;61230;46.328;19.972;2024-03-07T12:25:32;100610.19;;;6.96;100.00
73063;BME280;61230;46.328;19.972;2024-03-07T12:28:11;100606.22;;;7.14;100.00
73063;BME280;61230;46.328;19.972;2024-03-07T12:33:13;100599.53;;;7.10;100.00
73063;BME280;61230;46.328;19.972;2024-03-07T12:35:48;100604.38;;;7.38;100.00
73063;BME280;61230;46.328;19.972;2024-03-07T12:38:20;100597.47;;;7.26;100.00
73063;BME280;61230;46.328;19.972;2024-03-07T12:41:04;100600.78;;;7.17;100.00
73063;BME280;61230;46.328;19.972;2024-03-07T12:43:33;100613.75;;;7.30;100.00
73063;BME280;61230;46.328;19.972;2024-03-07T12:46:05;100610.88;;;7.22;100.00
73063;BME280;61230;46.328;19.972;2024-03-07T12:48:32;100612.09;;;7.29;100.00
73063;BME280;61230;46.328;19.972;2024-03-07T12:51:01;100615.03;;;7.24;100.00
73063;BME280;61230;46.328;19.972;2024-03-07T12:53:29;100615.47;;;7.07;100.00
73063;BME280;61230;46.328;19.972;2024-03-07T12:55:59;100610.75;;;7.12;100.00
73063;BME280;61230;46.328;19.972;2024-03-07T12:58:27;100605.53;;;6.88;100.00
73063;BME280;61230;46.328;19.972;2024-03-07T13:00:56;100563.72;;;6.65;100.00
73063;BME280;61230;46.328;19.972;2024-03-07T13:03:25;100606.22;;;6.79;100.00
73063;BME280;61230;46.328;19.972;2024-03-07T13:05:59;100575.63;;;6.69;100.00